createdAt,value
2017-08-21T00:01:50.067Z,5.63
2017-08-21T00:04:18.153Z,5.60
2017-08-21T00:06:46.261Z,5.60
2017-08-21T00:09:14.393Z,5.37
2017-08-21T00:11:42.524Z,5.40
2017-08-21T00:14:10.632Z,5.30
2017-08-21T00:16:38.752Z,4.63
2017-08-21T00:19:06.840Z,5.20
2017-08-21T00:21:34.963Z,5.73
2017-08-21T00:24:03.060Z,5.47
2017-08-21T00:26:31.176Z,5.67
2017-08-21T00:28:59.317Z,5.00
2017-08-21T00:31:27.452Z,5.73
2017-08-21T00:33:55.552Z,5.27
2017-08-21T00:36:24.429Z,5.33
2017-08-21T00:38:52.540Z,5.30
2017-08-21T00:41:20.653Z,5.10
2017-08-21T00:43:48.791Z,5.50
2017-08-21T00:46:16.889Z,4.93
2017-08-21T00:48:45.000Z,5.50
2017-08-21T00:51:13.110Z,4.70
2017-08-21T00:53:41.245Z,5.17
2017-08-21T00:56:09.346Z,5.10
2017-08-21T00:58:38.233Z,5.30
2017-08-21T01:01:06.346Z,5.13
2017-08-21T01:03:34.482Z,5.27
2017-08-21T01:06:02.593Z,5.50
2017-08-21T01:08:30.707Z,5.20
2017-08-21T01:10:58.798Z,5.33
2017-08-21T01:13:27.665Z,6.50
2017-08-21T01:15:55.761Z,4.87
2017-08-21T01:18:24.630Z,5.53
2017-08-21T01:20:52.802Z,5.30
2017-08-21T01:23:20.893Z,6.10
2017-08-21T01:25:48.994Z,6.40
2017-08-21T01:28:17.109Z,6.40
2017-08-21T01:30:45.213Z,5.70
2017-08-21T01:33:14.078Z,6.50
2017-08-21T01:35:42.173Z,6.27
2017-08-21T01:38:10.277Z,6.07
2017-08-21T01:40:38.393Z,5.60
2017-08-21T01:43:06.554Z,6.57
2017-08-21T01:45:34.642Z,5.77
2017-08-21T01:48:02.750Z,5.73
2017-08-21T01:50:31.620Z,6.20
2017-08-21T01:52:59.732Z,6.10
2017-08-21T01:55:27.854Z,5.60
2017-08-21T01:57:55.970Z,6.57
2017-08-21T02:00:24.095Z,6.43
2017-08-21T02:02:52.221Z,7.07
2017-08-21T02:05:20.329Z,6.10
2017-08-21T02:07:48.444Z,7.20
2017-08-21T02:10:16.561Z,6.00
2017-08-21T02:12:44.677Z,6.97
2017-08-21T02:15:12.770Z,6.83
2017-08-21T02:17:40.903Z,6.57
2017-08-21T02:20:09.001Z,6.90
2017-08-21T02:22:37.113Z,6.50
2017-08-21T02:25:05.216Z,7.00
2017-08-21T02:27:33.344Z,7.23
2017-08-21T02:30:01.455Z,6.73
2017-08-21T02:32:29.560Z,6.30
2017-08-21T02:34:57.649Z,6.33
2017-08-21T02:37:25.747Z,7.00
2017-08-21T02:39:53.855Z,6.50
2017-08-21T02:42:21.954Z,6.60
2017-08-21T02:44:50.071Z,7.20
2017-08-21T02:47:18.174Z,7.40
2017-08-21T02:49:46.274Z,6.37
2017-08-21T02:52:14.375Z,6.93
2017-08-21T02:54:42.521Z,6.63
2017-08-21T02:57:10.628Z,8.10
2017-08-21T02:59:38.713Z,6.67
2017-08-21T03:02:06.809Z,5.93
2017-08-21T03:04:34.906Z,6.93
2017-08-21T03:07:03.001Z,7.43
2017-08-21T03:09:31.086Z,6.47
2017-08-21T03:11:59.257Z,6.47
2017-08-21T03:14:27.452Z,7.20
2017-08-21T03:16:55.609Z,7.43
2017-08-21T03:19:24.585Z,7.03
2017-08-21T03:21:52.681Z,6.67
2017-08-21T03:24:20.895Z,6.30
2017-08-21T03:26:49.028Z,7.27
2017-08-21T03:29:17.125Z,7.00
2017-08-21T03:31:45.229Z,7.07
2017-08-21T03:34:13.845Z,7.30
2017-08-21T03:36:41.972Z,6.70
2017-08-21T03:39:10.073Z,7.03
2017-08-21T03:41:38.177Z,9.20
2017-08-21T03:44:06.274Z,6.97
2017-08-21T03:46:34.385Z,7.10
2017-08-21T03:49:02.496Z,6.53
2017-08-21T03:51:30.618Z,8.00
2017-08-21T03:53:58.724Z,6.20
2017-08-21T03:56:26.831Z,7.20
2017-08-21T03:58:54.939Z,6.97
2017-08-21T04:01:23.059Z,7.07
2017-08-21T04:03:51.913Z,7.77
2017-08-21T04:06:20.017Z,7.30
2017-08-21T04:08:48.160Z,7.67
2017-08-21T04:11:16.317Z,7.50
2017-08-21T04:13:44.416Z,7.10
2017-08-21T04:16:12.538Z,6.27
2017-08-21T04:18:40.631Z,5.83
2017-08-21T04:21:08.740Z,7.13
2017-08-21T04:23:36.845Z,7.00
2017-08-21T04:26:04.957Z,8.30
2017-08-21T04:28:33.051Z,8.00
2017-08-21T04:31:01.166Z,7.50
2017-08-21T04:33:29.290Z,6.80
2017-08-21T04:35:57.425Z,7.60
2017-08-21T04:38:25.524Z,7.50
2017-08-21T04:40:53.624Z,7.27
2017-08-21T04:43:21.721Z,8.13
2017-08-21T04:45:49.842Z,7.33
2017-08-21T04:48:17.935Z,6.97
2017-08-21T04:50:46.042Z,7.13
2017-08-21T04:53:14.168Z,7.40
2017-08-21T04:55:42.248Z,7.63
2017-08-21T04:58:10.362Z,8.90
2017-08-21T05:00:38.437Z,7.20
2017-08-21T05:03:06.546Z,7.23
2017-08-21T05:05:34.682Z,7.60
2017-08-21T05:08:02.799Z,7.90
2017-08-21T05:10:30.890Z,8.03
2017-08-21T05:12:58.990Z,7.30
2017-08-21T05:15:30.664Z,6.80
2017-08-21T05:17:59.536Z,7.10
2017-08-21T05:20:28.412Z,8.10
2017-08-21T05:22:56.532Z,6.93
2017-08-21T05:25:24.633Z,7.43
2017-08-21T05:27:52.735Z,7.10
2017-08-21T05:30:20.847Z,7.47
2017-08-21T05:32:48.949Z,8.37
2017-08-21T05:35:17.053Z,7.77
2017-08-21T05:37:45.133Z,6.90
2017-08-21T05:40:13.246Z,6.93
2017-08-21T05:42:41.366Z,8.20
2017-08-21T05:45:09.471Z,7.87
2017-08-21T05:47:37.570Z,6.93
2017-08-21T05:50:05.675Z,6.60
2017-08-21T05:52:33.821Z,7.57
2017-08-21T05:55:01.937Z,7.57
2017-08-21T05:57:30.042Z,7.17
2017-08-21T05:59:58.131Z,7.20
2017-08-21T06:02:26.233Z,6.97
2017-08-21T06:04:54.340Z,6.47
2017-08-21T06:07:22.452Z,6.37
2017-08-21T06:09:50.559Z,5.80
2017-08-21T06:12:18.659Z,6.70
2017-08-21T06:14:46.765Z,6.70
2017-08-21T06:17:14.894Z,6.50
2017-08-21T06:19:42.996Z,6.50
2017-08-21T06:22:11.133Z,6.00
2017-08-21T06:24:39.304Z,6.77
2017-08-21T06:27:07.429Z,7.30
2017-08-21T06:29:35.566Z,6.33
2017-08-21T06:32:03.665Z,6.10
2017-08-21T06:34:32.529Z,7.77
2017-08-21T06:37:00.678Z,9.47
2017-08-21T06:39:28.784Z,10.67
2017-08-21T06:41:56.884Z,8.20
2017-08-21T06:44:24.997Z,9.10
2017-08-21T06:46:53.119Z,8.50
2017-08-21T06:49:22.034Z,8.87
2017-08-21T06:51:50.147Z,8.17
2017-08-21T06:54:18.289Z,7.60
2017-08-21T06:56:46.382Z,7.00
2017-08-21T06:59:14.497Z,6.50
2017-08-21T07:01:43.385Z,7.73
2017-08-21T07:04:11.489Z,6.83
2017-08-21T07:06:39.620Z,6.80
2017-08-21T07:09:07.738Z,8.07
2017-08-21T07:11:35.861Z,7.33
2017-08-21T07:14:03.979Z,7.20
2017-08-21T07:16:32.084Z,8.20
2017-08-21T07:19:00.219Z,6.57
2017-08-21T07:21:28.360Z,6.70
2017-08-21T07:23:56.457Z,6.50
2017-08-21T07:26:24.601Z,6.77
2017-08-21T07:28:52.793Z,7.30
2017-08-21T07:31:20.985Z,5.83
2017-08-21T07:33:49.106Z,4.80
2017-08-21T07:36:17.205Z,5.67
2017-08-21T07:38:45.300Z,5.20
2017-08-21T07:41:13.447Z,6.13
2017-08-21T07:43:41.540Z,5.10
2017-08-21T07:46:09.669Z,5.57
2017-08-21T07:48:37.932Z,5.47
2017-08-21T07:51:06.098Z,5.37
2017-08-21T07:53:34.218Z,6.17
2017-08-21T07:56:02.334Z,6.33
2017-08-21T07:58:30.521Z,4.60
2017-08-21T08:00:58.663Z,4.10
2017-08-21T08:03:27.551Z,4.57
2017-08-21T08:05:55.659Z,4.83
2017-08-21T08:08:23.756Z,5.30
2017-08-21T08:10:51.840Z,4.70
2017-08-21T08:13:19.936Z,5.70
2017-08-21T08:15:48.099Z,4.57
2017-08-21T08:18:16.209Z,4.43
2017-08-21T08:20:45.619Z,4.63
2017-08-21T08:23:13.725Z,5.10
2017-08-21T08:25:41.816Z,5.00
2017-08-21T08:28:09.921Z,4.83
2017-08-21T08:30:38.838Z,4.43
2017-08-21T08:33:06.958Z,5.60
2017-08-21T08:35:35.064Z,4.30
2017-08-21T08:38:03.134Z,4.80
2017-08-21T08:40:32.420Z,4.93
2017-08-21T08:43:00.492Z,5.00
2017-08-21T08:45:28.576Z,5.03
2017-08-21T08:47:56.653Z,4.80
2017-08-21T08:50:24.727Z,5.53
2017-08-21T08:52:53.560Z,6.20
2017-08-21T08:55:21.631Z,5.73
2017-08-21T08:57:49.703Z,5.40
2017-08-21T09:00:17.815Z,5.77
2017-08-21T09:02:45.899Z,6.33
2017-08-21T09:05:13.993Z,5.60
2017-08-21T09:07:42.067Z,5.13
2017-08-21T09:10:10.516Z,7.50
2017-08-21T09:12:38.593Z,6.20
2017-08-21T09:15:06.675Z,5.37
2017-08-21T09:17:35.515Z,6.23
2017-08-21T09:20:03.601Z,5.80
2017-08-21T09:22:31.677Z,5.30
2017-08-21T09:24:59.766Z,4.47
2017-08-21T09:27:27.841Z,5.47
2017-08-21T09:29:55.923Z,4.83
2017-08-21T09:32:24.777Z,5.47
2017-08-21T09:34:52.865Z,5.57
2017-08-21T09:37:20.943Z,5.63
2017-08-21T09:39:49.015Z,6.17
2017-08-21T09:42:17.109Z,5.67
2017-08-21T09:44:45.169Z,4.83
2017-08-21T09:47:13.277Z,5.50
2017-08-21T09:49:41.340Z,5.20
2017-08-21T09:52:10.199Z,5.13
2017-08-21T09:54:38.277Z,4.20
2017-08-21T09:57:06.368Z,3.80
2017-08-21T09:59:34.447Z,4.13
2017-08-21T10:02:02.515Z,4.53
2017-08-21T10:04:31.364Z,4.73
2017-08-21T10:06:59.435Z,5.07
2017-08-21T10:09:27.523Z,4.50
2017-08-21T10:11:55.603Z,4.50
2017-08-21T10:14:23.689Z,4.57
2017-08-21T10:16:51.760Z,4.00
2017-08-21T10:19:20.608Z,3.80
2017-08-21T10:21:48.691Z,4.37
2017-08-21T10:24:16.767Z,4.43
2017-08-21T10:26:44.856Z,4.23
2017-08-21T10:29:12.949Z,4.83
2017-08-21T10:31:41.017Z,3.47
2017-08-21T10:34:09.088Z,3.53
2017-08-21T10:36:37.251Z,4.50
2017-08-21T10:39:05.317Z,4.00
2017-08-21T10:41:33.399Z,4.80
2017-08-21T10:44:01.474Z,4.30
2017-08-21T10:46:29.551Z,4.70
2017-08-21T10:48:57.648Z,4.60
2017-08-21T10:51:25.719Z,4.67
2017-08-21T10:53:53.791Z,4.53
2017-08-21T10:56:21.863Z,4.40
2017-08-21T10:58:49.936Z,4.30
2017-08-21T11:01:18.175Z,4.73
2017-08-21T11:03:46.244Z,4.70
2017-08-21T11:06:14.340Z,4.97
2017-08-21T11:08:43.180Z,4.43
2017-08-21T11:11:11.264Z,5.00
2017-08-21T11:13:39.340Z,4.70
2017-08-21T11:16:07.407Z,4.43
2017-08-21T11:18:35.495Z,4.20
2017-08-21T11:23:38.702Z,4.77
2017-08-21T11:26:06.779Z,4.40
2017-08-21T11:28:34.865Z,4.23
2017-08-21T11:31:02.935Z,4.57
2017-08-21T11:33:31.008Z,4.63
2017-08-21T11:35:59.847Z,4.97
2017-08-21T11:38:27.919Z,4.50
2017-08-21T11:40:56.008Z,4.97
2017-08-21T11:43:24.120Z,5.03
2017-08-21T11:45:52.221Z,4.40
2017-08-21T11:48:20.321Z,5.07
2017-08-21T11:50:48.413Z,4.97
2017-08-21T11:53:55.833Z,4.33
2017-08-21T11:56:23.908Z,5.07
2017-08-21T11:58:52.057Z,4.80
2017-08-21T12:01:20.156Z,4.10
2017-08-21T12:03:48.258Z,3.67
2017-08-21T12:06:16.352Z,5.20
2017-08-21T12:08:44.437Z,4.30
2017-08-21T12:11:12.600Z,4.10
2017-08-21T12:13:40.760Z,4.23
2017-08-21T12:16:08.877Z,4.07
2017-08-21T12:18:36.939Z,3.80
2017-08-21T12:21:05.036Z,4.43
2017-08-21T12:23:33.116Z,4.13
2017-08-21T12:26:01.231Z,4.30
2017-08-21T12:28:29.321Z,4.47
2017-08-21T12:30:57.437Z,4.13
2017-08-21T12:33:25.532Z,3.87
2017-08-21T12:35:53.595Z,4.20
2017-08-21T12:38:21.736Z,4.17
2017-08-21T12:40:49.827Z,3.67
2017-08-21T12:43:17.900Z,4.10
2017-08-21T12:45:45.973Z,4.10
2017-08-21T12:48:14.051Z,4.10
2017-08-21T12:50:42.184Z,3.80
2017-08-21T12:53:10.273Z,3.80
2017-08-21T12:55:38.368Z,4.43
2017-08-21T12:58:06.472Z,3.33
2017-08-21T13:00:34.564Z,3.80
2017-08-21T13:03:02.668Z,3.60
2017-08-21T13:05:30.739Z,3.37
2017-08-21T13:07:58.807Z,3.50
2017-08-21T13:10:26.892Z,3.30
2017-08-21T13:12:54.968Z,3.63
2017-08-21T13:15:23.047Z,4.40
2017-08-21T13:17:51.138Z,3.27
2017-08-21T13:20:19.228Z,3.43
2017-08-21T13:22:47.313Z,2.73
2017-08-21T13:25:15.401Z,3.03
2017-08-21T13:27:43.513Z,2.63
2017-08-21T13:30:11.608Z,3.53
2017-08-21T13:32:39.727Z,3.07
2017-08-21T13:35:08.662Z,2.63
2017-08-21T13:37:36.897Z,2.90
2017-08-21T13:40:04.975Z,2.90
2017-08-21T13:42:33.080Z,3.40
2017-08-21T13:45:01.164Z,3.20
2017-08-21T13:47:29.292Z,3.30
2017-08-21T13:49:57.364Z,2.53
2017-08-21T13:52:25.462Z,2.90
2017-08-21T13:54:53.577Z,2.93
2017-08-21T13:57:21.673Z,2.47
2017-08-21T13:59:49.761Z,3.23
2017-08-21T14:02:17.874Z,3.40
2017-08-21T14:04:45.958Z,2.97
2017-08-21T14:07:14.106Z,2.80
2017-08-21T14:09:42.189Z,3.00
2017-08-21T14:12:10.289Z,3.40
2017-08-21T14:14:38.382Z,2.83
2017-08-21T14:17:06.492Z,2.97
2017-08-21T14:19:34.632Z,3.23
2017-08-21T14:22:02.711Z,3.57
2017-08-21T14:24:30.815Z,2.73
2017-08-21T14:26:58.931Z,2.90
2017-08-21T14:29:27.041Z,3.10
2017-08-21T14:31:55.115Z,3.93
2017-08-21T14:34:23.192Z,3.17
2017-08-21T14:36:51.299Z,3.20
2017-08-21T14:39:19.409Z,3.17
2017-08-21T14:41:47.501Z,3.00
2017-08-21T14:44:15.592Z,2.33
2017-08-21T14:46:43.725Z,3.07
2017-08-21T14:49:11.821Z,3.23
2017-08-21T14:51:39.905Z,2.50
2017-08-21T14:54:07.989Z,2.50
2017-08-21T14:56:36.087Z,2.83
2017-08-21T14:59:04.215Z,2.73
2017-08-21T15:01:32.313Z,3.17
2017-08-21T15:04:00.381Z,2.60
2017-08-21T15:06:28.515Z,2.83
2017-08-21T15:08:56.609Z,2.60
2017-08-21T15:11:24.696Z,2.97
2017-08-21T15:13:52.793Z,2.80
2017-08-21T15:16:20.886Z,2.30
2017-08-21T15:18:48.994Z,2.73
2017-08-21T15:21:17.097Z,2.87
2017-08-21T15:23:45.174Z,3.30
2017-08-21T15:26:13.282Z,3.63
2017-08-21T15:28:41.398Z,3.10
2017-08-21T15:31:09.493Z,3.40
2017-08-21T15:33:37.609Z,2.87
2017-08-21T15:36:05.733Z,3.50
2017-08-21T15:38:33.820Z,3.17
2017-08-21T15:41:01.918Z,3.20
2017-08-21T15:43:30.060Z,3.20
2017-08-21T15:45:58.346Z,3.20
2017-08-21T15:48:26.437Z,3.00
2017-08-21T15:50:54.533Z,3.20
2017-08-21T15:53:22.645Z,2.97
2017-08-21T15:55:50.729Z,3.03
2017-08-21T15:58:18.834Z,3.20
2017-08-21T16:00:46.937Z,3.43
2017-08-21T16:03:15.037Z,2.67
2017-08-21T16:05:43.146Z,2.87
2017-08-21T16:08:11.317Z,3.37
2017-08-21T16:10:39.468Z,2.97
2017-08-21T16:13:07.575Z,3.07
2017-08-21T16:15:35.664Z,2.97
2017-08-21T16:18:03.769Z,3.27
2017-08-21T16:20:31.853Z,3.13
2017-08-21T16:23:00.015Z,2.70
2017-08-21T16:25:29.377Z,3.47
2017-08-21T16:27:57.494Z,2.87
2017-08-21T16:30:25.583Z,3.20
2017-08-21T16:32:53.668Z,3.53
2017-08-21T16:35:21.776Z,3.10
2017-08-21T16:37:49.860Z,3.33
2017-08-21T16:40:17.961Z,3.37
2017-08-21T16:42:46.037Z,2.93
2017-08-21T16:45:14.261Z,3.30
2017-08-21T16:47:42.344Z,3.50
2017-08-21T16:50:10.435Z,3.37
2017-08-21T16:52:38.519Z,3.03
2017-08-21T16:55:06.596Z,3.70
2017-08-21T16:57:34.667Z,3.77
2017-08-21T17:00:02.752Z,3.57
2017-08-21T17:02:30.828Z,2.80
2017-08-21T17:04:58.899Z,4.27
2017-08-21T17:07:27.190Z,4.80
2017-08-21T17:09:55.265Z,4.67
2017-08-21T17:12:23.355Z,8.43
2017-08-21T17:14:51.424Z,3.67
2017-08-21T17:17:19.512Z,13.87
2017-08-21T17:19:47.611Z,4.47
2017-08-21T17:22:15.766Z,5.00
2017-08-21T17:24:43.842Z,3.13
2017-08-21T17:27:11.925Z,4.00
2017-08-21T17:29:40.032Z,4.20
2017-08-21T17:32:08.120Z,25.43
2017-08-21T17:34:36.483Z,7.33
2017-08-21T17:37:04.571Z,5.57
2017-08-21T17:39:32.652Z,3.87
2017-08-21T17:42:00.724Z,4.63
2017-08-21T17:44:28.816Z,3.20
2017-08-21T17:46:56.963Z,4.40
2017-08-21T17:49:25.044Z,4.57
2017-08-21T17:51:53.116Z,4.03
2017-08-21T17:54:21.200Z,4.40
2017-08-21T17:56:49.281Z,4.50
2017-08-21T17:59:17.408Z,4.70
2017-08-21T18:01:45.480Z,5.60
2017-08-21T18:04:13.556Z,4.40
2017-08-21T18:06:41.633Z,4.77
2017-08-21T18:09:09.718Z,5.10
2017-08-21T18:11:37.776Z,5.37
2017-08-21T18:14:05.851Z,4.97
2017-08-21T18:16:33.932Z,5.37
2017-08-21T18:19:02.023Z,5.03
2017-08-21T18:21:30.517Z,4.73
2017-08-21T18:23:58.649Z,5.87
2017-08-21T18:26:26.732Z,5.50
2017-08-21T18:28:54.801Z,4.80
2017-08-21T18:31:22.876Z,5.03
2017-08-21T18:33:50.972Z,4.70
2017-08-21T18:36:19.052Z,5.00
2017-08-21T18:38:47.126Z,4.70
2017-08-21T18:41:15.212Z,4.80
2017-08-21T18:43:43.280Z,4.87
2017-08-21T18:46:11.363Z,4.17
2017-08-21T18:48:39.455Z,4.60
2017-08-21T18:51:07.532Z,4.20
2017-08-21T18:53:35.618Z,4.80
2017-08-21T18:56:03.738Z,4.73
2017-08-21T18:58:31.808Z,4.40
2017-08-21T19:00:59.888Z,5.10
2017-08-21T19:03:27.961Z,5.23
2017-08-21T19:05:56.036Z,4.80
2017-08-21T19:08:24.219Z,5.10
2017-08-21T19:10:52.308Z,4.53
2017-08-21T19:13:20.380Z,5.00
2017-08-21T19:15:48.452Z,4.63
2017-08-21T19:18:16.527Z,5.27
2017-08-21T19:20:44.961Z,4.60
2017-08-21T19:23:13.041Z,4.30
2017-08-21T19:25:41.123Z,4.53
2017-08-21T19:28:09.199Z,4.53
2017-08-21T19:30:37.294Z,4.03
2017-08-21T19:33:05.381Z,4.50
2017-08-21T19:35:33.458Z,6.50
2017-08-21T19:38:01.540Z,6.80
2017-08-21T19:40:29.606Z,6.50
2017-08-21T19:42:57.692Z,6.67
2017-08-21T19:45:25.832Z,5.80
2017-08-21T19:47:53.935Z,6.30
2017-08-21T19:50:22.044Z,6.07
2017-08-21T19:52:50.119Z,6.10
2017-08-21T19:55:18.204Z,6.17
2017-08-21T19:57:46.315Z,7.00
2017-08-21T20:00:14.433Z,6.70
2017-08-21T20:02:42.557Z,6.77
2017-08-21T20:05:10.705Z,6.50
2017-08-21T20:07:38.866Z,6.17
2017-08-21T20:10:07.020Z,6.80
2017-08-21T20:12:35.114Z,5.87
2017-08-21T20:15:03.237Z,6.20
2017-08-21T20:17:31.313Z,6.10
2017-08-21T20:19:59.381Z,5.53
2017-08-21T20:22:27.452Z,5.70
2017-08-21T20:24:55.538Z,5.83
2017-08-21T20:27:23.599Z,5.87
2017-08-21T20:29:51.809Z,6.53
2017-08-21T20:32:20.028Z,5.80
2017-08-21T20:34:48.120Z,6.30
2017-08-21T20:37:16.192Z,6.30
2017-08-21T20:39:44.311Z,6.40
2017-08-21T20:42:12.778Z,6.13
2017-08-21T20:44:40.852Z,6.60
2017-08-21T20:47:08.940Z,6.30
2017-08-21T20:49:37.020Z,6.47
2017-08-21T20:52:05.095Z,7.00
2017-08-21T20:54:33.159Z,6.33
2017-08-21T20:57:01.250Z,6.60
2017-08-21T20:59:29.341Z,6.70
2017-08-21T21:01:57.411Z,6.93
2017-08-21T21:04:25.492Z,7.57
2017-08-21T21:06:53.641Z,6.63
2017-08-21T21:09:21.716Z,6.83
2017-08-21T21:11:49.812Z,6.97
2017-08-21T21:14:17.950Z,6.47
2017-08-21T21:16:46.043Z,6.50
2017-08-21T21:19:14.144Z,6.40
2017-08-21T21:21:42.257Z,6.93
2017-08-21T21:24:10.381Z,6.40
2017-08-21T21:26:38.496Z,6.23
2017-08-21T21:29:06.638Z,7.00
2017-08-21T21:31:34.757Z,7.57
2017-08-21T21:34:02.871Z,6.70
2017-08-21T21:36:30.998Z,6.77
2017-08-21T21:38:59.155Z,7.40
2017-08-21T21:41:27.284Z,7.77
2017-08-21T21:43:55.419Z,7.17
2017-08-21T21:46:23.500Z,7.00
2017-08-21T21:48:51.623Z,6.10
2017-08-21T21:51:19.767Z,6.20
2017-08-21T21:53:47.925Z,6.13
2017-08-21T21:56:15.997Z,6.03
2017-08-21T21:58:44.083Z,6.37
2017-08-21T22:01:12.164Z,6.17
2017-08-21T22:03:40.289Z,6.40
2017-08-21T22:06:08.386Z,6.67
2017-08-21T22:08:36.479Z,6.30
2017-08-21T22:11:05.062Z,6.37
2017-08-21T22:13:33.322Z,6.20
2017-08-21T22:16:02.157Z,6.57
2017-08-21T22:18:30.286Z,7.50
2017-08-21T22:20:58.403Z,6.10
2017-08-21T22:23:26.528Z,6.13
2017-08-21T22:25:54.641Z,6.97
2017-08-21T22:28:22.799Z,6.70
2017-08-21T22:34:22.714Z,7.30
2017-08-21T22:36:57.887Z,7.30
2017-08-21T22:39:44.223Z,7.60
2017-08-21T22:42:20.142Z,5.87
2017-08-21T22:44:53.591Z,6.53
2017-08-21T22:47:25.778Z,6.67
2017-08-21T22:50:09.602Z,6.50
2017-08-21T22:53:08.829Z,7.13
2017-08-21T22:55:46.441Z,6.43
2017-08-21T22:58:21.690Z,6.90
2017-08-21T23:08:07.694Z,7.60
2017-08-21T23:10:49.913Z,7.90
2017-08-21T23:13:34.243Z,7.13
2017-08-21T23:16:05.460Z,7.20
2017-08-21T23:18:39.611Z,7.10
2017-08-21T23:21:11.620Z,7.33
2017-08-21T23:23:41.519Z,6.90
2017-08-21T23:26:10.940Z,6.97
2017-08-21T23:28:42.950Z,7.10
2017-08-21T23:31:13.985Z,6.70
2017-08-21T23:33:44.430Z,7.03
2017-08-21T23:36:18.019Z,7.60
2017-08-21T23:38:49.817Z,8.50
2017-08-21T23:41:19.019Z,8.00
2017-08-21T23:58:00.984Z,7.43
